Time;durP1;ratioP1;P1;durP2;ratioP2;P2;SDS_P1;SDS_P2;PMS_P1;PMS_P2;Temp;Humidity;BMP_temperature;BMP_pressure;BME280_temperature;BME280_humidity;BME280_pressure;Samples;Min_cycle;Max_cycle;Signal;HPM_P1;HPM_P2
2022/05/30 00:01:46;;;;;;;7.32;1.45;;;;;;;10.14;66.71;101258.78;5031568;28;20044;-75
2022/05/30 00:04:13;;;;;;;5.60;1.10;;;;;;;10.14;66.70;101252.66;5042502;28;20535;-76
2022/05/30 00:06:40;;;;;;;6.13;1.42;;;;;;;10.13;66.86;101253.56;5033526;28;20042;-78
2022/05/30 00:09:08;;;;;;;6.15;1.05;;;;;;;10.12;66.70;101257.09;5032324;28;20041;-76
2022/05/30 00:11:36;;;;;;;4.00;1.00;;;;;;;10.08;66.62;101241.34;5032356;28;20062;-77
2022/05/30 00:14:03;;;;;;;7.45;1.50;;;;;;;10.07;66.99;101252.78;5035176;28;20744;-76
2022/05/30 00:16:34;;;;;;;8.75;1.52;;;;;;;10.07;67.21;101252.78;5033213;28;20049;-78
2022/05/30 00:19:01;;;;;;;8.15;1.45;;;;;;;10.07;67.56;101246.66;5032232;28;20904;-78
2022/05/30 00:21:29;;;;;;;9.05;1.40;;;;;;;10.06;67.69;101244.94;5036311;28;20050;-76
2022/05/30 00:23:56;;;;;;;6.55;1.38;;;;;;;10.07;67.63;101246.66;5032352;28;20041;-77
2022/05/30 00:26:29;;;;;;;8.70;1.40;;;;;;;10.07;67.84;101242.25;5034515;28;20038;-77
2022/05/30 00:28:56;;;;;;;8.43;1.45;;;;;;;10.06;67.67;101240.53;5032988;28;20037;-77
2022/05/30 00:31:23;;;;;;;8.35;1.30;;;;;;;10.07;67.85;101236.97;5032930;28;20042;-78
2022/05/30 00:33:51;;;;;;;7.70;1.20;;;;;;;10.05;67.78;101240.56;5032786;28;20096;-77
2022/05/30 00:36:18;;;;;;;5.82;1.40;;;;;;;10.02;67.79;101243.28;5040270;28;20055;-77
2022/05/30 00:38:46;;;;;;;6.80;1.40;;;;;;;9.98;67.82;101233.69;5039104;28;20874;-77
2022/05/30 00:41:14;;;;;;;6.28;1.10;;;;;;;9.92;68.07;101235.53;5032344;28;20052;-76
2022/05/30 00:43:46;;;;;;;8.63;1.30;;;;;;;9.89;68.24;101229.47;5032778;28;20497;-77
2022/05/30 00:46:18;;;;;;;8.68;1.73;;;;;;;9.87;68.39;101239.19;5033975;28;20120;-76
2022/05/30 00:48:58;;;;;;;6.72;1.55;;;;;;;9.82;68.58;101233.16;5037901;28;20091;-77
2022/05/30 00:51:34;;;;;;;6.65;1.58;;;;;;;9.77;68.79;101234.09;5043988;28;20042;-75
2022/05/30 00:54:08;;;;;;;3.80;1.10;;;;;;;9.71;68.88;101231.59;5032178;28;20045;-75
2022/05/30 00:56:44;;;;;;;8.25;1.50;;;;;;;9.62;69.34;101240.53;5035497;28;20125;-75
2022/05/30 00:59:13;;;;;;;5.72;1.25;;;;;;;9.55;69.34;101236.31;5054879;28;20061;-77
2022/05/30 01:01:41;;;;;;;5.43;1.50;;;;;;;9.48;69.76;101232.06;5057142;28;20030;-75
2022/05/30 01:07:04;;;;;;;6.07;1.50;;;;;;;9.34;70.33;101242.88;5071596;28;20033;-73
2022/05/30 01:09:36;;;;;;;8.60;1.60;;;;;;;9.34;71.08;101248.13;5076158;28;20045;-78
2022/05/30 01:12:13;;;;;;;6.35;1.90;;;;;;;9.31;71.52;101240.28;5053902;28;20088;-75
2022/05/30 01:14:43;;;;;;;10.43;1.90;;;;;;;9.30;71.20;101231.53;5050162;28;20066;-74
2022/05/30 01:17:16;;;;;;;9.02;1.60;;;;;;;9.32;72.10;101231.50;5032324;28;20046;-76
2022/05/30 01:19:53;;;;;;;8.73;1.65;;;;;;;9.31;72.34;101232.38;5033019;28;20038;-75
2022/05/30 01:22:59;;;;;;;6.63;1.45;;;;;;;9.30;72.55;101236.78;5047916;28;20128;-77
2022/05/30 01:26:12;;;;;;;7.03;1.90;;;;;;;9.30;72.77;101242.06;5045737;28;20045;-77
2022/05/30 01:29:16;;;;;;;6.60;1.90;;;;;;;9.26;72.87;101240.38;5032870;28;20033;-74
2022/05/30 01:31:43;;;;;;;5.57;2.20;;;;;;;9.26;73.20;101234.25;5050594;28;20056;-74
2022/05/30 01:34:12;;;;;;;11.32;2.60;;;;;;;9.24;73.20;101230.78;5033951;28;20092;-76
2022/05/30 01:36:43;;;;;;;6.22;2.40;;;;;;;9.25;73.40;101225.47;5045700;28;20120;-77
2022/05/30 01:39:10;;;;;;;10.27;2.30;;;;;;;9.26;73.60;101227.22;5031000;28;20131;-76
2022/05/30 01:41:43;;;;;;;7.38;2.05;;;;;;;9.28;73.60;101229.81;5029323;28;20046;-75
2022/05/30 01:44:14;;;;;;;6.35;2.13;;;;;;;9.28;73.73;101228.06;5050290;28;20042;-77
2022/05/30 01:46:43;;;;;;;5.72;2.42;;;;;;;9.29;73.87;101226.28;5041289;28;20087;-75
2022/05/30 01:49:11;;;;;;;8.88;2.78;;;;;;;9.29;73.79;101221.03;5038370;28;20913;-75
2022/05/30 01:51:41;;;;;;;8.98;2.20;;;;;;;9.27;73.83;101218.44;5045311;28;20046;-75
2022/05/30 01:54:10;;;;;;;6.40;2.25;;;;;;;9.25;74.02;101222.00;5051334;28;21841;-75
2022/05/30 01:56:56;;;;;;;6.53;2.30;;;;;;;9.30;74.15;101217.50;5037950;28;20045;-73
2022/05/30 01:59:37;;;;;;;11.80;2.72;;;;;;;9.32;74.16;101221.81;5037347;28;20045;-75
2022/05/30 02:02:24;;;;;;;6.50;2.35;;;;;;;9.32;74.16;101216.56;5043710;28;20755;-73
2022/05/30 02:04:52;;;;;;;8.98;2.13;;;;;;;9.28;74.16;101219.28;5040821;28;20088;-75
2022/05/30 02:07:21;;;;;;;7.72;2.00;;;;;;;9.27;74.26;101210.53;5050836;28;20088;-75
2022/05/30 02:09:48;;;;;;;5.00;1.92;;;;;;;9.25;73.93;101209.69;5049009;28;20041;-75
2022/05/30 02:12:16;;;;;;;9.32;2.20;;;;;;;9.22;74.16;101203.63;5050298;28;20152;-75
2022/05/30 02:15:09;;;;;;;6.15;1.70;;;;;;;9.23;74.22;101213.25;5059024;28;20100;-75
2022/05/30 02:17:36;;;;;;;7.88;1.95;;;;;;;9.23;74.34;101195.69;5033949;28;20150;-77
2022/05/30 02:20:04;;;;;;;8.15;1.88;;;;;;;9.24;74.22;101196.56;5061647;28;20042;-75
2022/05/30 02:22:35;;;;;;;8.80;2.10;;;;;;;9.25;73.91;101203.56;5047023;28;20049;-76
2022/05/30 02:25:03;;;;;;;7.47;1.90;;;;;;;9.24;73.71;101196.56;5055058;28;20484;-75
2022/05/30 02:27:30;;;;;;;7.40;2.42;;;;;;;9.26;73.62;101189.53;5040998;28;20155;-75
2022/05/30 02:29:58;;;;;;;8.75;1.77;;;;;;;9.24;73.63;101197.44;5041090;28;20075;-75
2022/05/30 02:32:26;;;;;;;9.48;2.53;;;;;;;9.23;73.50;101197.47;5038111;28;20137;-74
2022/05/30 02:37:40;;;;;;;8.90;1.80;;;;;;;9.19;73.56;101194.03;5042766;28;20053;-75
2022/05/30 02:40:27;;;;;;;7.30;1.90;;;;;;;9.22;73.60;101190.47;5032010;28;20062;-75
2022/05/30 02:43:26;;;;;;;7.20;1.73;;;;;;;9.24;73.58;101200.06;5033486;28;20044;-75
2022/05/30 02:45:53;;;;;;;12.85;2.10;;;;;;;9.23;73.59;101206.22;5034698;28;20480;-74
2022/05/30 02:48:21;;;;;;;11.15;1.80;;;;;;;9.21;73.44;101205.38;5038860;28;20046;-75
2022/05/30 02:50:48;;;;;;;7.95;1.90;;;;;;;9.21;73.33;101202.75;5041719;28;20042;-74
2022/05/30 02:53:15;;;;;;;11.55;2.60;;;;;;;9.23;73.49;101208.84;5042690;28;20043;-75
2022/05/30 02:56:16;;;;;;;7.53;1.83;;;;;;;9.23;73.54;101211.47;5021289;28;20065;-76
2022/05/30 02:58:48;;;;;;;6.57;2.05;;;;;;;9.21;73.79;101201.88;5034047;28;20053;-76
2022/05/30 03:01:17;;;;;;;9.18;1.70;;;;;;;9.21;73.78;101205.38;5050675;28;20038;-75
2022/05/30 03:03:45;;;;;;;7.80;2.30;;;;;;;9.17;73.50;101207.19;5046392;28;20107;-75
2022/05/30 03:06:13;;;;;;;9.90;1.88;;;;;;;9.15;73.88;101206.38;5040686;28;20041;-77
2022/05/30 03:08:40;;;;;;;8.82;2.20;;;;;;;9.14;74.17;101206.38;5052130;28;20555;-78
2022/05/30 03:11:11;;;;;;;9.68;2.03;;;;;;;9.12;74.00;101203.81;5052183;28;20076;-76
2022/05/30 03:13:40;;;;;;;7.18;2.20;;;;;;;9.10;74.10;101207.38;5048540;28;20042;-78
2022/05/30 03:16:08;;;;;;;9.18;2.00;;;;;;;9.08;74.10;101206.50;5032555;28;20045;-78
2022/05/30 03:18:39;;;;;;;9.60;2.20;;;;;;;9.08;74.31;101206.50;5055538;28;20131;-76
2022/05/30 03:21:06;;;;;;;8.63;2.38;;;;;;;9.08;74.29;101204.75;5036903;28;20045;-77
2022/05/30 03:23:36;;;;;;;9.07;1.85;;;;;;;9.08;74.64;101202.09;5047919;28;20042;-80
2022/05/30 03:26:12;;;;;;;7.85;1.67;;;;;;;9.05;74.16;101210.06;5038743;28;20431;-78
2022/05/30 03:28:39;;;;;;;5.97;1.80;;;;;;;9.05;74.29;101206.56;5042326;28;20042;-78
2022/05/30 03:31:09;;;;;;;10.32;1.80;;;;;;;9.06;74.49;101205.66;5038450;28;20049;-78
2022/05/30 03:33:42;;;;;;;9.15;2.33;;;;;;;9.06;74.86;101203.03;5032271;28;20887;-79
2022/05/30 03:36:16;;;;;;;9.93;2.03;;;;;;;9.05;74.51;101206.56;5042908;28;20096;-77
2022/05/30 03:39:15;;;;;;;8.03;1.77;;;;;;;9.03;74.53;101206.59;5043291;28;20049;-78
2022/05/30 03:42:02;;;;;;;6.25;1.50;;;;;;;9.05;74.62;101215.34;5043982;28;20264;-77
2022/05/30 03:44:41;;;;;;;5.45;1.52;;;;;;;9.06;74.46;101211.78;5052275;28;20896;-78
2022/05/30 03:47:09;;;;;;;7.82;2.10;;;;;;;9.08;74.44;101222.28;5033462;28;20085;-77
2022/05/30 03:49:37;;;;;;;17.38;2.80;;;;;;;9.07;74.91;101220.56;5040245;28;20051;-77
2022/05/30 03:52:05;;;;;;;12.02;2.95;;;;;;;9.00;75.38;101222.44;5032369;28;20124;-73
2022/05/30 03:54:34;;;;;;;11.13;3.47;;;;;;;8.91;75.30;101219.97;5038766;28;20050;-73
2022/05/30 03:57:03;;;;;;;9.27;3.47;;;;;;;8.80;75.45;101221.00;5032760;28;20066;-72
2022/05/30 03:59:31;;;;;;;11.52;4.03;;;;;;;8.75;76.01;101222.81;5039332;28;20051;-72
2022/05/30 04:02:01;;;;;;;15.02;4.28;;;;;;;8.70;76.33;101224.69;5036467;28;20681;-73
2022/05/30 04:04:28;;;;;;;11.65;4.60;;;;;;;8.67;76.93;101217.72;5035196;28;20033;-73
2022/05/30 04:06:55;;;;;;;14.05;4.45;;;;;;;8.62;77.00;101219.53;5040697;28;20049;-72
2022/05/30 04:09:24;;;;;;;11.40;4.80;;;;;;;8.54;76.38;101217.06;5037514;28;20107;-72
2022/05/30 04:12:21;;;;;;;13.70;4.70;;;;;;;8.52;76.79;101212.69;5035054;28;20082;-71
2022/05/30 04:15:20;;;;;;;13.70;3.78;;;;;;;8.52;77.33;101221.47;5037763;28;20497;-72
2022/05/30 04:17:49;;;;;;;9.38;4.18;;;;;;;8.52;77.44;101216.22;5040788;28;20042;-71
2022/05/30 04:20:17;;;;;;;18.40;4.45;;;;;;;8.52;77.64;101210.06;5037133;28;20044;-73
2022/05/30 04:22:44;;;;;;;9.80;4.80;;;;;;;8.52;77.74;101218.84;5030814;28;20449;-73
2022/05/30 04:25:44;;;;;;;9.93;4.38;;;;;;;8.51;77.58;101219.72;5037460;28;20053;-74
2022/05/30 04:28:12;;;;;;;10.93;4.03;;;;;;;8.49;77.54;101211.00;5035000;28;20041;-75
2022/05/30 04:30:43;;;;;;;12.05;4.40;;;;;;;8.52;77.69;101215.31;5041062;28;20065;-75
2022/05/30 04:33:12;;;;;;;9.65;4.28;;;;;;;8.54;77.52;101219.69;5038898;28;20038;-73
2022/05/30 04:35:43;;;;;;;11.75;4.30;;;;;;;8.57;77.49;101218.75;5035419;28;20125;-78
2022/05/30 04:38:10;;;;;;;10.20;3.97;;;;;;;8.62;77.40;101216.91;5043064;28;20041;-76
2022/05/30 04:40:56;;;;;;;10.02;4.50;;;;;;;8.76;77.03;101221.94;5040170;28;20038;-77
2022/05/30 04:43:42;;;;;;;12.20;3.88;;;;;;;8.81;76.80;101220.13;5039270;28;20726;-75
2022/05/30 04:46:27;;;;;;;10.50;3.90;;;;;;;8.90;76.82;101219.09;5035373;28;20102;-79
2022/05/30 04:48:55;;;;;;;7.75;3.42;;;;;;;9.08;76.21;101223.16;5043020;28;20725;-74
2022/05/30 04:51:29;;;;;;;11.80;3.67;;;;;;;9.18;76.01;101221.22;5042778;28;20033;-72
2022/05/30 04:53:58;;;;;;;7.13;3.10;;;;;;;9.28;76.05;101221.91;5048854;28;20227;-76
2022/05/30 04:56:58;;;;;;;8.13;3.20;;;;;;;9.45;75.58;101222.47;5050525;28;20048;-74
2022/05/30 04:59:27;;;;;;;8.75;2.88;;;;;;;9.48;75.19;101225.03;5048379;28;20614;-75
2022/05/30 05:02:01;;;;;;;10.20;2.90;;;;;;;9.50;75.08;101227.66;5036348;28;20074;-75
2022/05/30 05:04:30;;;;;;;11.65;3.00;;;;;;;9.68;75.07;101233.44;5043478;28;20092;-75
2022/05/30 05:06:57;;;;;;;9.80;2.50;;;;;;;9.91;75.28;101233.84;5049453;28;20045;-74
2022/05/30 05:09:49;;;;;;;11.27;2.70;;;;;;;10.19;74.93;101232.34;5047353;28;20042;-74
2022/05/30 05:12:35;;;;;;;8.80;2.50;;;;;;;10.28;73.14;101237.41;5045538;28;20136;-75
2022/05/30 05:15:21;;;;;;;8.98;2.25;;;;;;;10.33;72.58;101234.66;5042008;28;20065;-74
2022/05/30 05:18:07;;;;;;;6.97;2.40;;;;;;;10.90;71.39;101241.25;5045098;28;20135;-74
2022/05/30 05:20:41;;;;;;;7.47;2.47;;;;;;;11.44;69.72;101237.22;5050961;28;20890;-74
2022/05/30 05:23:11;;;;;;;8.68;2.63;;;;;;;11.46;68.99;101239.78;5048584;28;20053;-74
2022/05/30 05:25:56;;;;;;;12.23;2.83;;;;;;;11.29;68.41;101241.09;5049701;28;20629;-75
2022/05/30 05:28:50;;;;;;;10.70;2.38;;;;;;;11.07;68.51;101254.00;5043665;28;20054;-74
2022/05/30 05:31:22;;;;;;;10.80;2.30;;;;;;;10.86;68.39;101251.00;5043957;28;20042;-73
2022/05/30 05:33:52;;;;;;;6.07;2.07;;;;;;;10.75;68.81;101257.47;5049718;28;20050;-72
2022/05/30 05:36:25;;;;;;;6.57;2.08;;;;;;;10.59;68.83;101251.69;5048338;28;20254;-75
2022/05/30 05:38:52;;;;;;;8.27;2.50;;;;;;;10.46;68.99;101251.13;5048972;28;20044;-73
2022/05/30 05:41:35;;;;;;;6.20;2.22;;;;;;;11.28;67.35;101254.34;5035395;28;20156;-74
2022/05/30 05:44:16;;;;;;;9.77;2.40;;;;;;;12.72;64.24;101242.19;5048883;28;20041;-74
2022/05/30 05:46:44;;;;;;;9.63;2.70;;;;;;;12.62;63.45;101244.31;5048913;28;20069;-74
2022/05/30 05:49:12;;;;;;;7.47;2.40;;;;;;;12.78;62.78;101244.66;5049132;28;20133;-74
2022/05/30 05:51:40;;;;;;;15.43;2.33;;;;;;;13.58;61.24;101245.47;5045070;28;20105;-73
2022/05/30 05:54:10;;;;;;;16.63;3.10;;;;;;;13.87;59.64;101247.06;5046283;28;20045;-74
2022/05/30 05:56:38;;;;;;;9.93;2.42;;;;;;;14.00;59.01;101247.47;5050555;28;20091;-74
2022/05/30 05:59:16;;;;;;;9.45;2.20;;;;;;;14.14;57.53;101246.91;5036656;28;20042;-75
2022/05/30 06:01:43;;;;;;;12.18;2.45;;;;;;;15.24;55.85;101249.56;5051709;28;20052;-75
2022/05/30 06:04:12;;;;;;;24.55;2.40;;;;;;;17.81;49.81;101242.50;5052288;28;20131;-76
2022/05/30 06:07:12;;;;;;;11.50;1.85;;;;;;;18.83;46.25;101239.47;5049583;28;20040;-74
2022/05/30 06:09:48;;;;;;;14.85;2.08;;;;;;;18.09;47.14;101244.56;5048406;28;20050;-75
2022/05/30 06:12:37;;;;;;;14.50;2.20;;;;;;;17.33;47.36;101247.69;5047570;28;20049;-74
2022/05/30 06:15:06;;;;;;;16.23;2.85;;;;;;;16.06;49.46;101246.78;5049074;28;20541;-74
2022/05/30 06:17:46;;;;;;;18.25;2.78;;;;;;;15.15;51.96;101251.69;5033045;28;20056;-75
2022/05/30 06:20:17;;;;;;;20.73;2.95;;;;;;;14.54;54.07;101250.63;5052932;28;20559;-75
2022/05/30 06:22:45;;;;;;;6.63;1.90;;;;;;;14.05;55.40;101255.22;5051846;28;20069;-74
2022/05/30 06:25:38;;;;;;;11.63;2.60;;;;;;;13.61;56.49;101263.91;5042450;28;20463;-74
2022/05/30 06:28:25;;;;;;;6.63;2.00;;;;;;;13.29;57.69;101260.59;5050925;28;20038;-74
2022/05/30 06:31:30;;;;;;;9.90;2.25;;;;;;;12.98;58.53;101257.22;5050184;28;20111;-75
2022/05/30 06:34:02;;;;;;;8.65;2.63;;;;;;;12.69;59.94;101263.47;5053046;28;20100;-75
2022/05/30 06:36:40;;;;;;;7.88;2.10;;;;;;;12.48;60.02;101262.38;5056891;28;20132;-73
2022/05/30 06:39:10;;;;;;;10.32;2.50;;;;;;;12.33;60.61;101261.97;5037433;28;20053;-73
2022/05/30 06:42:14;;;;;;;11.68;2.88;;;;;;;12.25;61.43;101263.97;5032041;28;20056;-75
2022/05/30 06:44:59;;;;;;;11.38;3.47;;;;;;;12.17;62.15;101268.59;5049759;28;20045;-74
2022/05/30 06:47:47;;;;;;;9.27;2.85;;;;;;;12.16;61.46;101267.75;5062177;28;20057;-73
2022/05/30 06:50:41;;;;;;;8.98;2.90;;;;;;;12.14;61.67;101268.72;5035652;28;20490;-73
2022/05/30 06:53:11;;;;;;;34.65;5.15;;;;;;;12.20;61.64;101271.16;5051967;28;20037;-74
2022/05/30 06:55:38;;;;;;;11.55;2.58;;;;;;;12.28;61.47;101277.09;5055179;28;20056;-75
2022/05/30 06:58:12;;;;;;;9.18;1.98;;;;;;;12.37;60.72;101279.44;5041442;28;21924;-75
2022/05/30 07:00:44;;;;;;;6.90;1.50;;;;;;;12.43;59.26;101273.09;5032931;28;20129;-74
2022/05/30 07:03:37;;;;;;;7.45;1.25;;;;;;;12.51;58.09;101276.38;5032094;28;20081;-74
2022/05/30 07:06:33;;;;;;;4.65;1.35;;;;;;;12.60;58.06;101275.22;5052266;28;20053;-74
2022/05/30 07:09:17;;;;;;;6.85;1.50;;;;;;;12.64;56.54;101271.56;5059683;28;20048;-74
2022/05/30 07:12:10;;;;;;;5.75;1.10;;;;;;;12.64;56.09;101273.34;5051948;28;20112;-73
2022/05/30 07:14:38;;;;;;;8.57;1.30;;;;;;;12.67;56.49;101278.53;5048399;28;20562;-75
2022/05/30 07:17:11;;;;;;;16.98;2.35;;;;;;;12.77;56.81;101277.31;5049340;28;20069;-75
2022/05/30 07:19:38;;;;;;;9.65;1.25;;;;;;;12.88;55.73;101276.97;5047268;28;20490;-75
2022/05/30 07:22:10;;;;;;;2.58;0.90;;;;;;;12.93;55.53;101280.34;5032237;28;20046;-76
2022/05/30 07:24:59;;;;;;;5.85;0.75;;;;;;;13.00;55.55;101275.72;5051254;28;20037;-75
2022/05/30 07:28:06;;;;;;;5.93;1.00;;;;;;;13.11;53.69;101283.28;5061126;28;20038;-74
2022/05/30 07:31:13;;;;;;;2.42;0.90;;;;;;;13.15;53.85;101277.81;5052102;28;20067;-76
2022/05/30 07:33:59;;;;;;;3.58;0.80;;;;;;;13.25;53.36;101274.84;5051359;28;20114;-74
2022/05/30 07:36:45;;;;;;;4.70;0.60;;;;;;;13.40;53.36;101270.84;5052826;28;20056;-74
2022/05/30 07:39:23;;;;;;;5.00;0.80;;;;;;;13.49;52.13;101270.50;5052257;28;20046;-75
2022/05/30 07:42:13;;;;;;;6.07;0.80;;;;;;;13.32;52.00;101271.09;5051976;28;20041;-76
2022/05/30 07:44:56;;;;;;;3.33;0.60;;;;;;;13.41;52.22;101268.16;5038794;28;20542;-76
2022/05/30 07:47:56;;;;;;;2.75;0.60;;;;;;;13.60;52.14;101263.03;5045740;28;20042;-76
2022/05/30 07:50:45;;;;;;;8.13;1.10;;;;;;;13.81;50.15;101271.13;5040705;28;20050;-75
2022/05/30 07:53:33;;;;;;;2.42;0.57;;;;;;;13.93;48.71;101270.69;5042525;28;20053;-76
2022/05/30 07:56:39;;;;;;;16.17;1.50;;;;;;;13.79;50.22;101271.19;5039750;28;20526;-76
2022/05/30 07:59:07;;;;;;;10.70;1.08;;;;;;;13.86;50.11;101271.84;5046382;28;20048;-77
2022/05/30 08:01:34;;;;;;;15.30;2.35;;;;;;;13.91;50.66;101271.66;5049703;28;20136;-76
2022/05/30 08:04:04;;;;;;;4.47;0.70;;;;;;;13.98;50.39;101267.84;5046778;28;20137;-78
2022/05/30 08:06:46;;;;;;;5.53;0.70;;;;;;;13.97;50.71;101274.94;5047027;28;20180;-76
2022/05/30 08:09:32;;;;;;;9.60;1.23;;;;;;;14.00;50.31;101266.00;5039486;28;20119;-74
2022/05/30 08:12:07;;;;;;;;;;;;;;;14.03;50.11;101272.97;5031298;28;20050;-75
2022/05/30 08:14:53;;;;;;;7.57;1.58;;;;;;;14.02;50.11;101264.16;5037535;28;19931;-75
2022/05/30 08:17:23;;;;;;;8.30;0.95;;;;;;;14.07;50.23;101264.84;5051394;28;20089;-77
2022/05/30 08:19:52;;;;;;;6.70;1.13;;;;;;;14.11;49.99;101265.59;5058809;28;20073;-74
2022/05/30 08:22:23;;;;;;;4.50;0.80;;;;;;;14.13;49.61;101264.63;5048043;28;20045;-75
2022/05/30 08:24:53;;;;;;;2.58;0.73;;;;;;;14.13;49.31;101269.94;5052072;28;20558;-77
2022/05/30 08:27:23;;;;;;;8.00;1.43;;;;;;;14.09;49.52;101264.81;5064662;28;20077;-76
2022/05/30 08:29:56;;;;;;;12.45;1.40;;;;;;;14.09;50.70;101264.81;5067875;28;20069;-76
2022/05/30 08:32:37;;;;;;;10.02;1.00;;;;;;;14.11;50.63;101266.47;5070633;28;20033;-76
2022/05/30 08:35:26;;;;;;;12.00;1.77;;;;;;;14.21;49.92;101274.06;5066062;28;20056;-75
2022/05/30 08:37:57;;;;;;;3.47;0.70;;;;;;;14.33;49.75;101272.72;5053480;28;20069;-76
2022/05/30 08:43:37;;;;;;;4.75;1.10;;;;;;;14.47;49.58;101278.34;5034197;28;20048;-76
2022/05/30 08:46:36;;;;;;;9.93;1.45;;;;;;;14.72;49.29;101272.06;5042507;28;20038;-76
2022/05/30 08:49:22;;;;;;;1.88;0.60;;;;;;;14.98;48.35;101276.31;5060206;28;20121;-76
2022/05/30 08:52:11;;;;;;;8.77;0.80;;;;;;;15.15;47.52;101274.75;5045061;28;20038;-75
2022/05/30 08:55:23;;;;;;;2.75;0.80;;;;;;;15.27;46.17;101281.31;5041236;28;20049;-76
2022/05/30 08:58:36;;;;;;;6.15;0.90;;;;;;;15.30;46.20;101273.22;5051519;28;20137;-75
2022/05/30 09:01:18;;;;;;;;;;;;;;;15.35;45.82;101273.88;5048641;28;20081;-76
2022/05/30 09:04:27;;;;;;;5.22;0.70;;;;;;;15.49;47.08;101271.47;5049574;28;19956;-78
2022/05/30 09:07:14;;;;;;;3.85;0.88;;;;;;;15.64;45.87;101267.28;5044347;28;20169;-76
2022/05/30 09:10:08;;;;;;;3.33;0.80;;;;;;;15.66;45.73;101276.06;5051119;28;20045;-76
2022/05/30 09:12:47;;;;;;;3.65;0.70;;;;;;;15.76;44.70;101275.63;5050838;28;20530;-76
2022/05/30 09:15:41;;;;;;;6.85;1.23;;;;;;;15.71;46.14;101281.16;5049750;28;20038;-76
2022/05/30 09:19:03;;;;;;;4.43;0.90;;;;;;;15.73;45.80;101273.09;5050758;28;20120;-77
2022/05/30 09:21:32;;;;;;;2.55;0.70;;;;;;;15.70;43.80;101271.47;5047228;28;20053;-76
2022/05/30 09:24:02;;;;;;;2.58;0.63;;;;;;;15.56;45.61;101276.50;5039963;28;20049;-75
2022/05/30 09:26:40;;;;;;;1.67;0.50;;;;;;;15.61;45.57;101267.41;5046331;28;20553;-76
2022/05/30 09:29:29;;;;;;;4.35;0.90;;;;;;;15.88;44.16;101268.94;5046066;28;20538;-77
2022/05/30 09:32:43;;;;;;;10.95;1.30;;;;;;;16.02;44.87;101278.91;5048462;28;20048;-76
2022/05/30 09:35:33;;;;;;;4.05;1.05;;;;;;;16.20;45.32;101269.22;5034241;28;20133;-76
2022/05/30 09:38:23;;;;;;;4.75;0.90;;;;;;;16.36;43.84;101272.03;5031980;28;20050;-77
2022/05/30 09:41:30;;;;;;;5.97;1.20;;;;;;;16.51;43.45;101276.59;5041414;28;20050;-75
2022/05/30 09:44:18;;;;;;;15.60;2.00;;;;;;;16.60;43.44;101269.97;5039330;28;20050;-76
2022/05/30 09:47:06;;;;;;;2.75;0.82;;;;;;;16.67;42.91;101275.84;5048493;28;20545;-76
2022/05/30 09:49:54;;;;;;;10.88;1.08;;;;;;;16.77;42.96;101275.31;5050105;28;20041;-76
2022/05/30 09:52:28;;;;;;;3.25;0.90;;;;;;;16.85;42.42;101277.59;5048271;28;20042;-74
2022/05/30 09:55:01;;;;;;;5.85;1.23;;;;;;;16.89;42.63;101273.84;5054471;28;20046;-75
2022/05/30 09:57:42;;;;;;;6.32;1.17;;;;;;;16.95;42.14;101278.03;5053516;28;20049;-77
2022/05/30 10:00:57;;;;;;;4.75;1.10;;;;;;;17.02;42.23;101275.91;5034005;28;20048;-76
2022/05/30 10:03:37;;;;;;;5.78;1.00;;;;;;;16.95;42.21;101264.72;5042453;28;20052;-77
2022/05/30 10:06:25;;;;;;;2.83;0.80;;;;;;;16.94;42.46;101270.97;5050924;28;20038;-76
2022/05/30 10:09:32;;;;;;;3.03;0.95;;;;;;;16.86;42.14;101270.47;5033618;28;20042;-78
2022/05/30 10:12:09;;;;;;;12.00;1.52;;;;;;;16.79;42.63;101277.03;5033189;28;20116;-76
2022/05/30 10:14:39;;;;;;;10.35;1.15;;;;;;;16.84;42.87;101278.53;5064770;28;20073;-77
2022/05/30 10:17:26;;;;;;;5.95;0.80;;;;;;;16.94;42.51;101286.94;5049203;28;20046;-77
2022/05/30 10:19:57;;;;;;;3.65;1.00;;;;;;;16.98;41.97;101287.69;5050685;28;20103;-75
2022/05/30 10:30:25;;;;;;;7.32;1.73;;;;;;;16.83;40.92;101283.94;5054345;28;20072;-78
2022/05/30 10:33:31;;;;;;;13.63;1.10;;;;;;;16.88;40.09;101287.22;5034313;28;20081;-78
2022/05/30 10:36:21;;;;;;;6.93;1.38;;;;;;;16.96;39.84;101278.91;5046501;28;20823;-77
2022/05/30 10:39:13;;;;;;;2.75;1.40;;;;;;;17.16;39.31;101284.09;5051026;28;20053;-75
2022/05/30 10:42:03;;;;;;;3.75;1.00;;;;;;;17.54;39.39;101275.03;5051032;28;20042;-76
2022/05/30 10:44:42;;;;;;;4.82;1.02;;;;;;;17.97;38.19;101290.56;5034227;28;20131;-76
2022/05/30 10:47:45;;;;;;;3.05;0.90;;;;;;;18.05;36.88;101268.81;5038551;28;20521;-76
2022/05/30 10:50:52;;;;;;;4.95;0.73;;;;;;;18.00;36.59;101280.59;5050962;28;20459;-76
2022/05/30 10:53:31;;;;;;;3.15;1.08;;;;;;;18.07;36.75;101281.13;5040597;28;20104;-77
2022/05/30 10:56:41;;;;;;;1.15;0.50;;;;;;;18.36;35.29;101283.97;5044812;28;20499;-77
2022/05/30 10:59:40;;;;;;;2.05;0.52;;;;;;;18.50;34.17;101277.84;5066711;28;20047;-76
2022/05/30 11:03:03;;;;;;;7.15;1.02;;;;;;;18.60;35.56;101286.22;5044445;28;20120;-77
2022/05/30 11:05:59;;;;;;;2.67;1.00;;;;;;;18.37;35.38;101283.03;5047204;28;20137;-77
2022/05/30 11:08:58;;;;;;;5.85;0.82;;;;;;;18.47;35.97;101288.69;5051558;28;20543;-78
2022/05/30 11:11:39;;;;;;;8.40;1.30;;;;;;;18.71;35.88;101282.91;5048502;28;20111;-77
2022/05/30 11:14:50;;;;;;;10.20;1.92;;;;;;;18.78;37.16;101279.81;5050597;28;20470;-75
2022/05/30 11:17:59;;;;;;;6.68;1.70;;;;;;;18.52;37.57;101286.63;5052015;28;20095;-76
2022/05/30 11:21:20;;;;;;;7.78;1.77;;;;;;;18.32;38.15;101293.09;5052903;28;20045;-76
2022/05/30 11:23:48;;;;;;;9.55;1.77;;;;;;;18.13;38.28;101304.78;5047957;28;20121;-78
2022/05/30 11:26:59;;;;;;;5.68;1.60;;;;;;;17.94;38.54;101290.69;5052410;28;20045;-78
2022/05/30 11:29:58;;;;;;;6.70;1.63;;;;;;;17.80;39.03;101288.78;5033355;28;20042;-77
2022/05/30 11:32:57;;;;;;;6.88;1.42;;;;;;;17.65;39.08;101288.63;5048845;28;20046;-76
2022/05/30 11:35:37;;;;;;;6.40;1.80;;;;;;;17.60;38.40;101280.03;5034329;28;20116;-76
2022/05/30 11:38:33;;;;;;;5.38;1.50;;;;;;;17.50;37.99;101284.13;5051836;28;20084;-76
2022/05/30 11:42:07;;;;;;;4.43;1.30;;;;;;;17.46;38.78;101278.09;5043078;28;20117;-77
2022/05/30 11:44:51;;;;;;;3.63;1.20;;;;;;;17.60;38.06;101281.84;5018969;28;20153;-77
2022/05/30 11:47:39;;;;;;;8.50;1.90;;;;;;;17.63;38.51;101287.88;5042990;28;20497;-77
2022/05/30 11:50:16;;;;;;;7.15;1.50;;;;;;;17.74;38.90;101278.44;5037147;28;20041;-76
2022/05/30 11:53:33;;;;;;;3.55;1.10;;;;;;;17.72;37.94;101283.00;5033803;28;20069;-76
2022/05/30 11:56:31;;;;;;;6.03;1.48;;;;;;;17.75;38.21;101270.34;5033178;28;20041;-77
2022/05/30 11:59:08;;;;;;;5.22;1.05;;;;;;;18.22;37.64;101279.41;5038267;28;20115;-76
2022/05/30 12:01:43;;;;;;;9.88;1.45;;;;;;;18.87;37.75;101274.88;5036954;28;20049;-78
2022/05/30 12:05:04;;;;;;;7.38;1.40;;;;;;;19.35;36.50;101272.06;5052475;28;20045;-79
2022/05/30 12:07:50;;;;;;;3.67;1.50;;;;;;;19.78;35.91;101269.44;5048539;28;20107;-78
2022/05/30 12:10:50;;;;;;;6.47;1.70;;;;;;;20.39;34.59;101271.88;5035580;28;20048;-77
2022/05/30 12:14:30;;;;;;;6.88;1.70;;;;;;;20.39;33.33;101269.19;5041112;28;20037;-77
2022/05/30 12:23:48;;;;;;;5.63;1.70;;;;;;;20.64;34.43;101279.16;5041523;28;20065;-77
2022/05/30 12:24:18;;;;;;;3.08;0.88;;;;;;;20.60;30.92;101261.53;5033484;28;20038;-78
2022/05/30 12:26:48;;;;;;;4.35;1.27;;;;;;;20.59;31.56;101269.69;5044403;28;20567;-77
2022/05/30 12:29:37;;;;;;;3.38;1.17;;;;;;;20.39;31.32;101271.00;5031925;28;20133;-78
2022/05/30 12:32:32;;;;;;;11.82;1.80;;;;;;;20.12;32.58;101263.78;5045029;28;20522;-78
2022/05/30 12:37:44;;;;;;;4.82;1.40;;;;;;;19.57;33.10;101276.13;5030613;28;20041;-78
2022/05/30 12:40:24;;;;;;;4.00;1.50;;;;;;;19.35;33.75;101267.56;5045097;28;20038;-78
2022/05/30 12:43:03;;;;;;;3.05;1.48;;;;;;;19.17;33.67;101268.69;5042164;28;20049;-77
2022/05/30 12:46:06;;;;;;;7.25;1.90;;;;;;;18.95;33.90;101271.78;5044651;28;20038;-78
2022/05/30 12:48:42;;;;;;;13.85;2.80;;;;;;;18.63;34.67;101276.22;5043944;28;20046;-78
2022/05/30 12:51:21;;;;;;;4.63;1.60;;;;;;;18.51;35.01;101279.56;5044930;28;20041;-77
2022/05/30 12:53:58;;;;;;;5.53;1.75;;;;;;;18.45;35.25;101278.09;5042597;28;20041;-76